createdAt,value
2022-08-18T00:01:16.745Z,19.10
2022-08-18T00:06:21.677Z,19.10
2022-08-18T00:11:24.877Z,19.20
2022-08-18T00:16:27.656Z,19.30
2022-08-18T00:21:30.442Z,19.30
2022-08-18T00:26:36.824Z,19.50
2022-08-18T00:31:40.286Z,19.50
2022-08-18T00:36:43.812Z,19.50
2022-08-18T00:41:46.691Z,19.50
2022-08-18T00:46:49.509Z,19.80
2022-08-18T00:51:52.305Z,19.70
2022-08-18T00:56:55.456Z,19.50
2022-08-18T01:02:02.451Z,19.50
2022-08-18T01:48:20.063Z,19.20
2022-08-18T01:53:22.927Z,19.30
2022-08-18T01:58:31.595Z,19.20
2022-08-18T02:03:34.746Z,19.10
2022-08-18T02:08:37.467Z,19.00
2022-08-18T02:13:40.306Z,18.90
2022-08-18T02:18:48.183Z,18.90
2022-08-18T02:23:53.513Z,18.80
2022-08-18T02:28:56.731Z,18.70
2022-08-18T02:33:59.584Z,18.60
2022-08-18T02:39:02.410Z,18.60
2022-08-18T02:44:05.147Z,18.50
2022-08-18T02:49:08.480Z,18.60
2022-08-18T02:54:11.639Z,18.60
2022-08-18T02:59:14.403Z,18.50
2022-08-18T03:04:17.648Z,18.70
2022-08-18T03:09:20.361Z,18.20
2022-08-18T03:14:23.105Z,18.30
2022-08-18T03:19:26.055Z,18.30
2022-08-18T03:24:29.323Z,18.20
2022-08-18T03:29:33.080Z,18.40
2022-08-18T03:34:37.162Z,18.20
2022-08-18T03:39:39.937Z,18.30
2022-08-18T03:44:42.692Z,18.00
2022-08-18T03:49:45.913Z,18.00
2022-08-18T03:54:48.609Z,17.70
2022-08-18T03:59:51.296Z,18.00
2022-08-18T04:04:54.006Z,17.90
2022-08-18T04:09:56.685Z,17.90
2022-08-18T04:15:00.950Z,17.80
2022-08-18T04:20:04.077Z,17.60
2022-08-18T04:25:09.339Z,17.60
2022-08-18T04:30:12.342Z,18.60
2022-08-18T04:35:15.719Z,18.00
2022-08-18T04:40:24.342Z,17.90
2022-08-18T04:45:30.238Z,17.80
2022-08-18T04:50:33.021Z,17.50
2022-08-18T04:55:35.684Z,18.40
2022-08-18T05:00:38.380Z,18.60
2022-08-18T05:05:41.179Z,18.70
2022-08-18T05:10:44.307Z,18.80
2022-08-18T05:16:09.520Z,19.00
2022-08-18T05:21:15.521Z,19.30
2022-08-18T05:26:18.279Z,19.00
2022-08-18T05:31:21.026Z,19.90
2022-08-18T05:36:23.782Z,20.40
2022-08-18T05:41:26.913Z,20.70
2022-08-18T05:46:29.636Z,21.10
2022-08-18T05:51:32.388Z,21.20
2022-08-18T05:56:47.504Z,21.20
2022-08-18T06:01:51.705Z,21.00
2022-08-18T06:06:54.527Z,21.00
2022-08-18T06:11:57.461Z,21.00
2022-08-18T08:29:21.678Z,23.20
2022-08-18T08:34:24.913Z,23.60
2022-08-18T08:39:28.389Z,24.00
2022-08-18T08:44:31.204Z,24.00
2022-08-18T08:49:33.905Z,24.10
2022-08-18T08:54:36.695Z,24.10
2022-08-18T08:59:39.857Z,24.40
2022-08-18T09:04:54.161Z,24.50
2022-08-18T09:10:05.272Z,24.90
2022-08-18T09:15:09.266Z,24.90
2022-08-18T09:20:12.363Z,24.90
2022-08-18T09:25:15.105Z,24.80
2022-08-18T09:30:18.391Z,24.80
2022-08-18T09:35:23.899Z,24.80
2022-08-18T09:41:02.804Z,24.60
2022-08-18T09:46:05.997Z,24.40
2022-08-18T09:51:08.881Z,24.50
2022-08-18T09:56:11.780Z,24.60
2022-08-18T10:01:17.747Z,24.50
2022-08-18T10:06:20.885Z,25.00
2022-08-18T10:11:29.763Z,25.00
2022-08-18T10:16:51.092Z,25.30
2022-08-18T10:21:55.920Z,25.80
2022-08-18T10:26:58.691Z,26.30
2022-08-18T10:32:01.463Z,26.40
2022-08-18T10:37:06.345Z,26.40
2022-08-18T10:42:11.197Z,26.40
2022-08-18T10:47:17.616Z,26.70
2022-08-18T10:52:27.902Z,26.90
2022-08-18T10:57:31.232Z,26.80
2022-08-18T11:02:34.547Z,26.60
2022-08-18T11:07:44.838Z,26.30
2022-08-18T11:12:47.821Z,26.40
2022-08-18T11:17:50.866Z,26.70
2022-08-18T11:22:54.549Z,26.60
2022-08-18T11:27:57.904Z,26.50
2022-08-18T11:33:02.880Z,26.70
2022-08-18T11:38:05.954Z,27.10
2022-08-18T11:43:15.337Z,27.00
2022-08-18T11:48:20.799Z,27.20
2022-08-18T11:53:26.528Z,27.30
2022-08-18T11:58:34.531Z,27.20
2022-08-18T12:03:37.277Z,27.40
2022-08-18T12:08:57.117Z,27.50
2022-08-18T12:14:01.965Z,27.30
2022-08-18T12:19:25.252Z,27.60
2022-08-18T12:24:37.003Z,27.70
2022-08-18T12:35:09.552Z,28.20
2022-08-18T12:40:13.010Z,27.90
2022-08-18T12:45:15.949Z,27.50
2022-08-18T12:50:19.231Z,27.30
2022-08-18T13:00:28.136Z,27.50
2022-08-18T13:05:32.573Z,27.70
2022-08-18T13:10:46.731Z,27.90
2022-08-18T13:15:55.490Z,28.20
2022-08-18T13:21:01.469Z,28.50
2022-08-18T13:26:04.180Z,28.30
2022-08-18T13:31:06.981Z,28.10
2022-08-18T13:36:09.689Z,28.30
2022-08-18T13:41:15.704Z,27.80
2022-08-18T13:51:37.176Z,27.50
2022-08-18T13:56:40.558Z,27.50
2022-08-18T14:01:52.243Z,27.20
2022-08-18T14:06:57.011Z,27.10
2022-08-18T14:12:00.861Z,27.10
2022-08-18T14:17:03.725Z,27.30
2022-08-18T14:22:27.588Z,27.30
2022-08-18T14:27:35.201Z,27.10
2022-08-18T14:32:48.830Z,27.20
2022-08-18T14:37:54.319Z,27.10
2022-08-18T14:42:59.060Z,27.10
2022-08-18T14:48:02.096Z,26.90
2022-08-18T14:53:09.558Z,26.90
2022-08-18T14:58:16.538Z,26.70
2022-08-18T15:03:21.595Z,27.10
2022-08-18T15:08:31.116Z,27.30
2022-08-18T15:13:34.924Z,27.30
2022-08-18T15:18:37.670Z,27.40
2022-08-18T15:23:58.697Z,27.10
2022-08-18T15:29:01.907Z,27.40
2022-08-18T15:34:12.759Z,26.80
2022-08-18T15:39:15.550Z,26.80
2022-08-18T15:44:19.238Z,26.50
2022-08-18T15:49:23.054Z,26.20
2022-08-18T15:54:25.952Z,25.80
2022-08-18T15:59:34.321Z,25.50
2022-08-18T16:04:45.106Z,25.00
2022-08-18T16:09:47.944Z,24.70
2022-08-18T16:14:53.236Z,24.60
2022-08-18T16:19:55.980Z,24.60
2022-08-18T16:24:58.846Z,24.60
2022-08-18T16:30:01.774Z,24.80
2022-08-18T16:35:04.508Z,24.80
2022-08-18T16:40:09.842Z,25.00
2022-08-18T16:45:13.280Z,24.80
2022-08-18T16:50:16.137Z,24.60
2022-08-18T16:55:18.891Z,24.30
2022-08-18T17:00:39.478Z,24.10
2022-08-18T17:05:42.249Z,24.10
2022-08-18T17:10:45.090Z,24.00
2022-08-18T17:15:49.615Z,24.30
2022-08-18T17:20:52.509Z,23.90
2022-08-18T17:25:58.124Z,24.00
2022-08-18T17:31:02.174Z,24.10
2022-08-18T17:36:05.012Z,24.10
2022-08-18T17:41:07.888Z,25.90
2022-08-18T17:46:11.727Z,22.30
2022-08-18T17:51:32.237Z,21.60
2022-08-18T17:56:36.272Z,21.10
2022-08-18T18:01:39.078Z,21.20
2022-08-18T18:06:41.999Z,20.30
2022-08-18T18:11:47.654Z,20.30
2022-08-18T18:16:50.732Z,20.10
2022-08-18T18:22:01.680Z,19.90
2022-08-18T18:27:04.999Z,19.90
2022-08-18T18:32:07.735Z,19.80
2022-08-18T18:37:10.492Z,19.50
2022-08-18T18:42:14.394Z,19.60
2022-08-18T18:47:17.228Z,20.30
2022-08-18T18:52:23.904Z,19.80
2022-08-18T18:57:32.198Z,20.00
2022-08-18T19:02:35.320Z,20.00
2022-08-18T19:07:38.637Z,20.10
2022-08-18T19:12:43.440Z,19.90
2022-08-18T19:17:46.190Z,20.00
2022-08-18T19:22:49.444Z,19.90
2022-08-18T19:27:52.176Z,19.80
2022-08-18T19:32:55.068Z,20.00
2022-08-18T19:37:57.908Z,20.00
2022-08-18T19:43:03.445Z,20.10
2022-08-18T19:48:06.204Z,20.10
